Minnewaukan, North Dakota
Current Conditions -  °F | °C
As of 11:35 PM on Wednesday 26 Nov 2014 (Local Time) from KDVL Reporting Station
Clear Clear  
Wind Chill: -8°   Ceiling: Unl
Heat Index: -8°   Visibility: 10mi
Dew Point: -17°   Wind: 0mph
Humidity: 65%   Direction: NA
Pressure: 30.45"   Gusts: NA
Location:  48.07°N, 99.25°W
Report Text: KDVL 270535Z AUTO 00000KT 10SM CLR M22/M27 A3045 RMK AO1
Loading
Personal Weather Stations






























Interactive Weather Map New forecast layout! Learn more

10-Day Weather Forecast

Advertisements
Track Severe Weather on mobile